Terminal Aerodrome Forecast
Issued by NWS

Home | Current Version | Previous Version | Text Only | Print | Product List | Glossary Off
Versions: 1 2 3 4 5 6 7 8 9 10 11 12 13 14 15 16 17

209
FTUS42 KMHX 212331
TAFOAJ
TAF
KOAJ 212331Z 2200/2224 20006KT P6SM BKN200
     FM220800 VRB03KT P6SM BKN015
      TEMPO 2209/2213 BKN007
     FM221400 24005KT P6SM BKN050
     FM222300 22005KT P6SM OVC040
      AMD LTD TO CLD VIS AND WIND=

USA.gov is the U.S. government's official web portal to all federal, state and local government web resources and services.